sensor_id;sensor_type;location;lat;lon;timestamp;pressure;altitude;pressure_sealevel;temperature;humidity
967;BME280;56108;48.730;9.304;2023-05-29T00:01:45;97524.97;;;14.31;66.79
967;BME280;56108;48.730;9.304;2023-05-29T00:03:56;97525.28;;;14.17;71.14
967;BME280;56108;48.730;9.304;2023-05-29T00:06:05;97531.22;;;13.99;71.85
967;BME280;56108;48.730;9.304;2023-05-29T00:08:13;97527.13;;;13.95;74.99
967;BME280;56108;48.730;9.304;2023-05-29T00:10:21;97522.28;;;13.89;78.09
967;BME280;56108;48.730;9.304;2023-05-29T00:12:29;97521.97;;;13.71;81.44
967;BME280;56108;48.730;9.304;2023-05-29T00:14:39;97515.28;;;13.77;82.60
967;BME280;56108;48.730;9.304;2023-05-29T00:16:48;97523.63;;;13.63;83.36
967;BME280;56108;48.730;9.304;2023-05-29T00:19:00;97518.19;;;13.53;83.88
967;BME280;56108;48.730;9.304;2023-05-29T00:21:07;97519.69;;;13.67;84.68
967;BME280;56108;48.730;9.304;2023-05-29T00:23:15;97515.47;;;13.64;83.08
967;BME280;56108;48.730;9.304;2023-05-29T00:25:23;97524.38;;;13.53;83.75
967;BME280;56108;48.730;9.304;2023-05-29T00:27:31;97517.81;;;13.46;86.14
967;BME280;56108;48.730;9.304;2023-05-29T00:29:40;97519.16;;;13.41;85.62
967;BME280;56108;48.730;9.304;2023-05-29T00:31:48;97509.44;;;13.40;86.53
967;BME280;56108;48.730;9.304;2023-05-29T00:34:02;97502.31;;;13.29;87.90
967;BME280;56108;48.730;9.304;2023-05-29T00:36:10;97505.00;;;13.18;87.54
967;BME280;56108;48.730;9.304;2023-05-29T00:38:18;97501.13;;;13.11;88.57
967;BME280;56108;48.730;9.304;2023-05-29T00:40:26;97500.44;;;13.41;85.02
967;BME280;56108;48.730;9.304;2023-05-29T00:42:34;97501.78;;;13.46;82.46
967;BME280;56108;48.730;9.304;2023-05-29T00:44:42;97505.13;;;13.60;81.13
967;BME280;56108;48.730;9.304;2023-05-29T00:46:52;97505.03;;;13.50;81.48
967;BME280;56108;48.730;9.304;2023-05-29T00:49:04;97496.59;;;13.34;83.38
967;BME280;56108;48.730;9.304;2023-05-29T00:51:13;97504.28;;;13.27;84.69
967;BME280;56108;48.730;9.304;2023-05-29T00:53:23;97507.19;;;13.24;86.23
967;BME280;56108;48.730;9.304;2023-05-29T00:55:31;97504.38;;;13.25;86.16
967;BME280;56108;48.730;9.304;2023-05-29T00:57:39;97494.06;;;13.21;87.24
967;BME280;56108;48.730;9.304;2023-05-29T00:59:48;97504.28;;;13.16;87.36
967;BME280;56108;48.730;9.304;2023-05-29T01:01:58;97502.31;;;13.18;86.54
967;BME280;56108;48.730;9.304;2023-05-29T01:04:11;97509.50;;;13.06;88.01
967;BME280;56108;48.730;9.304;2023-05-29T01:06:19;97502.25;;;12.97;89.28
967;BME280;56108;48.730;9.304;2023-05-29T01:08:28;97498.09;;;12.93;88.41
967;BME280;56108;48.730;9.304;2023-05-29T01:10:36;97493.59;;;13.16;89.66
967;BME280;56108;48.730;9.304;2023-05-29T01:13:00;97504.50;;;13.13;90.13
967;BME280;56108;48.730;9.304;2023-05-29T01:15:24;97505.88;;;12.96;90.19
967;BME280;56108;48.730;9.304;2023-05-29T01:17:41;97500.44;;;12.75;92.64
967;BME280;56108;48.730;9.304;2023-05-29T01:20:07;97500.66;;;13.05;92.45
967;BME280;56108;48.730;9.304;2023-05-29T01:22:29;97501.16;;;12.77;93.02
967;BME280;56108;48.730;9.304;2023-05-29T01:24:49;97503.34;;;12.83;93.60
967;BME280;56108;48.730;9.304;2023-05-29T01:27:01;97504.31;;;12.82;90.04
967;BME280;56108;48.730;9.304;2023-05-29T01:29:14;97499.22;;;12.79;90.70
967;BME280;56108;48.730;9.304;2023-05-29T01:31:25;97498.00;;;12.72;91.27
967;BME280;56108;48.730;9.304;2023-05-29T01:33:38;97497.38;;;13.02;89.94
967;BME280;56108;48.730;9.304;2023-05-29T01:35:50;97505.53;;;12.78;88.75
967;BME280;56108;48.730;9.304;2023-05-29T01:38:00;97496.19;;;12.72;90.87
967;BME280;56108;48.730;9.304;2023-05-29T01:40:09;97500.69;;;12.61;92.55
967;BME280;56108;48.730;9.304;2023-05-29T01:42:20;97498.00;;;12.49;93.91
967;BME280;56108;48.730;9.304;2023-05-29T01:44:29;97498.88;;;12.50;96.95
967;BME280;56108;48.730;9.304;2023-05-29T01:46:38;97496.56;;;12.45;98.01
967;BME280;56108;48.730;9.304;2023-05-29T01:48:46;97495.00;;;12.43;97.96
967;BME280;56108;48.730;9.304;2023-05-29T01:50:55;97498.72;;;12.29;98.13
967;BME280;56108;48.730;9.304;2023-05-29T01:53:03;97498.38;;;12.22;99.09
967;BME280;56108;48.730;9.304;2023-05-29T01:55:11;97497.25;;;12.25;100.00
967;BME280;56108;48.730;9.304;2023-05-29T01:57:22;97507.69;;;12.17;100.00
967;BME280;56108;48.730;9.304;2023-05-29T01:59:32;97504.63;;;12.10;100.00
967;BME280;56108;48.730;9.304;2023-05-29T02:01:41;97505.94;;;12.05;100.00
967;BME280;56108;48.730;9.304;2023-05-29T02:03:49;97498.44;;;11.98;100.00
967;BME280;56108;48.730;9.304;2023-05-29T02:05:58;97512.00;;;11.95;100.00
967;BME280;56108;48.730;9.304;2023-05-29T02:08:06;97508.63;;;12.05;100.00
967;BME280;56108;48.730;9.304;2023-05-29T02:10:18;97509.38;;;12.07;100.00
967;BME280;56108;48.730;9.304;2023-05-29T02:12:28;97508.63;;;12.05;100.00
967;BME280;56108;48.730;9.304;2023-05-29T02:14:36;97504.97;;;12.06;100.00
967;BME280;56108;48.730;9.304;2023-05-29T02:16:45;97514.94;;;12.15;100.00
967;BME280;56108;48.730;9.304;2023-05-29T02:18:54;97507.28;;;12.10;100.00
967;BME280;56108;48.730;9.304;2023-05-29T02:21:02;97510.91;;;11.98;100.00
967;BME280;56108;48.730;9.304;2023-05-29T02:23:10;97505.09;;;12.04;100.00
967;BME280;56108;48.730;9.304;2023-05-29T02:25:20;97506.28;;;11.89;100.00
967;BME280;56108;48.730;9.304;2023-05-29T02:27:30;97505.91;;;11.82;100.00
967;BME280;56108;48.730;9.304;2023-05-29T02:29:38;97506.84;;;11.81;100.00
967;BME280;56108;48.730;9.304;2023-05-29T02:31:46;97503.16;;;11.71;100.00
967;BME280;56108;48.730;9.304;2023-05-29T02:33:54;97500.00;;;11.66;100.00
967;BME280;56108;48.730;9.304;2023-05-29T02:36:03;97510.38;;;11.58;100.00
967;BME280;56108;48.730;9.304;2023-05-29T02:38:16;97508.81;;;11.55;100.00
967;BME280;56108;48.730;9.304;2023-05-29T02:40:24;97508.41;;;11.48;100.00
967;BME280;56108;48.730;9.304;2023-05-29T02:42:37;97507.09;;;11.54;100.00
967;BME280;56108;48.730;9.304;2023-05-29T02:44:45;97505.28;;;11.55;100.00
967;BME280;56108;48.730;9.304;2023-05-29T02:46:55;97504.28;;;11.44;100.00
967;BME280;56108;48.730;9.304;2023-05-29T02:49:03;97501.31;;;11.36;100.00
967;BME280;56108;48.730;9.304;2023-05-29T02:51:11;97501.66;;;11.32;100.00
967;BME280;56108;48.730;9.304;2023-05-29T02:53:19;97501.44;;;11.35;100.00
967;BME280;56108;48.730;9.304;2023-05-29T02:55:27;97499.84;;;11.32;100.00
967;BME280;56108;48.730;9.304;2023-05-29T02:57:39;97503.97;;;11.36;100.00
967;BME280;56108;48.730;9.304;2023-05-29T02:59:47;97501.44;;;11.35;100.00
967;BME280;56108;48.730;9.304;2023-05-29T03:01:56;97502.28;;;11.35;100.00
967;BME280;56108;48.730;9.304;2023-05-29T03:04:06;97502.63;;;11.31;100.00
967;BME280;56108;48.730;9.304;2023-05-29T03:06:14;97496.91;;;11.24;100.00
967;BME280;56108;48.730;9.304;2023-05-29T03:08:24;97499.69;;;11.22;100.00
967;BME280;56108;48.730;9.304;2023-05-29T03:10:32;97493.84;;;11.17;100.00
967;BME280;56108;48.730;9.304;2023-05-29T03:12:44;97496.00;;;11.12;100.00
967;BME280;56108;48.730;9.304;2023-05-29T03:14:52;97489.19;;;11.08;100.00
967;BME280;56108;48.730;9.304;2023-05-29T03:17:04;97489.72;;;11.01;100.00
967;BME280;56108;48.730;9.304;2023-05-29T03:19:15;97493.94;;;10.92;100.00
967;BME280;56108;48.730;9.304;2023-05-29T03:21:23;97484.34;;;10.89;100.00
967;BME280;56108;48.730;9.304;2023-05-29T03:23:31;97489.06;;;10.86;100.00
967;BME280;56108;48.730;9.304;2023-05-29T03:25:39;97490.75;;;10.87;100.00
967;BME280;56108;48.730;9.304;2023-05-29T03:27:50;97491.28;;;10.79;100.00
967;BME280;56108;48.730;9.304;2023-05-29T03:29:59;97495.88;;;10.77;100.00
967;BME280;56108;48.730;9.304;2023-05-29T03:32:08;97487.25;;;10.74;100.00
967;BME280;56108;48.730;9.304;2023-05-29T03:34:16;97498.75;;;10.74;100.00
967;BME280;56108;48.730;9.304;2023-05-29T03:36:35;97495.25;;;10.74;100.00
967;BME280;56108;48.730;9.304;2023-05-29T03:38:46;97496.84;;;10.76;100.00
967;BME280;56108;48.730;9.304;2023-05-29T03:40:57;97497.13;;;10.84;100.00
967;BME280;56108;48.730;9.304;2023-05-29T03:43:08;97494.53;;;10.95;100.00
967;BME280;56108;48.730;9.304;2023-05-29T03:45:16;97497.06;;;11.10;100.00
967;BME280;56108;48.730;9.304;2023-05-29T03:47:24;97497.28;;;11.31;100.00
967;BME280;56108;48.730;9.304;2023-05-29T03:49:32;97498.25;;;11.30;100.00
967;BME280;56108;48.730;9.304;2023-05-29T03:51:40;97501.38;;;11.23;100.00
967;BME280;56108;48.730;9.304;2023-05-29T03:53:48;97507.56;;;11.24;100.00
967;BME280;56108;48.730;9.304;2023-05-29T03:55:56;97508.41;;;11.24;100.00
967;BME280;56108;48.730;9.304;2023-05-29T03:58:09;97506.13;;;11.31;100.00
967;BME280;56108;48.730;9.304;2023-05-29T04:00:17;97508.59;;;11.34;100.00
967;BME280;56108;48.730;9.304;2023-05-29T04:02:28;97517.69;;;11.43;100.00
967;BME280;56108;48.730;9.304;2023-05-29T04:04:36;97515.69;;;11.58;100.00
967;BME280;56108;48.730;9.304;2023-05-29T04:06:44;97518.06;;;11.73;100.00
967;BME280;56108;48.730;9.304;2023-05-29T04:08:52;97512.19;;;12.27;100.00
967;BME280;56108;48.730;9.304;2023-05-29T04:11:00;97516.41;;;13.20;100.00
967;BME280;56108;48.730;9.304;2023-05-29T04:13:11;97523.44;;;13.96;99.72
967;BME280;56108;48.730;9.304;2023-05-29T04:15:19;97524.03;;;14.93;92.51
967;BME280;56108;48.730;9.304;2023-05-29T04:17:26;97534.81;;;16.01;86.82
967;BME280;56108;48.730;9.304;2023-05-29T04:19:35;97558.06;;;16.59;74.25
967;BME280;56108;48.730;9.304;2023-05-29T04:21:43;97562.56;;;17.42;70.51
967;BME280;56108;48.730;9.304;2023-05-29T04:23:52;97578.50;;;18.35;65.83
967;BME280;56108;48.730;9.304;2023-05-29T04:26:00;97593.59;;;19.15;60.53
967;BME280;56108;48.730;9.304;2023-05-29T04:28:15;97603.13;;;19.36;56.81
967;BME280;56108;48.730;9.304;2023-05-29T04:30:26;97608.78;;;19.93;54.84
967;BME280;56108;48.730;9.304;2023-05-29T04:32:34;97614.56;;;20.14;53.49
967;BME280;56108;48.730;9.304;2023-05-29T04:34:43;97619.53;;;20.76;51.70
967;BME280;56108;48.730;9.304;2023-05-29T04:36:53;97626.59;;;21.09;50.52
967;BME280;56108;48.730;9.304;2023-05-29T04:39:03;97623.66;;;21.44;49.63
967;BME280;56108;48.730;9.304;2023-05-29T04:41:12;97640.69;;;21.69;48.14
967;BME280;56108;48.730;9.304;2023-05-29T04:43:23;97650.31;;;22.10;47.38
967;BME280;56108;48.730;9.304;2023-05-29T04:45:38;97646.16;;;22.54;45.69
967;BME280;56108;48.730;9.304;2023-05-29T04:47:46;97644.47;;;22.30;46.30
967;BME280;56108;48.730;9.304;2023-05-29T04:49:54;97647.38;;;23.12;44.54
967;BME280;56108;48.730;9.304;2023-05-29T04:52:05;97653.78;;;23.49;43.51
967;BME280;56108;48.730;9.304;2023-05-29T04:54:13;97667.66;;;24.13;42.20
967;BME280;56108;48.730;9.304;2023-05-29T04:56:22;97660.38;;;23.99;42.46
967;BME280;56108;48.730;9.304;2023-05-29T04:58:34;97675.19;;;24.68;41.20
967;BME280;56108;48.730;9.304;2023-05-29T05:00:42;97669.84;;;25.18;40.05
967;BME280;56108;48.730;9.304;2023-05-29T05:02:52;97676.13;;;24.76;39.75
967;BME280;56108;48.730;9.304;2023-05-29T05:05:01;97680.47;;;25.69;38.28
967;BME280;56108;48.730;9.304;2023-05-29T05:07:10;97689.91;;;25.73;37.76
967;BME280;56108;48.730;9.304;2023-05-29T05:09:18;97691.59;;;26.57;36.55
967;BME280;56108;48.730;9.304;2023-05-29T05:11:26;97692.97;;;26.26;36.65
967;BME280;56108;48.730;9.304;2023-05-29T05:13:37;97689.41;;;27.00;36.20
967;BME280;56108;48.730;9.304;2023-05-29T05:15:45;97697.81;;;27.65;33.79
967;BME280;56108;48.730;9.304;2023-05-29T05:17:53;97696.75;;;26.99;35.81
967;BME280;56108;48.730;9.304;2023-05-29T05:20:01;97701.44;;;27.32;34.69
967;BME280;56108;48.730;9.304;2023-05-29T05:22:11;97708.78;;;27.71;33.51
967;BME280;56108;48.730;9.304;2023-05-29T05:24:19;97692.78;;;26.41;35.63
967;BME280;56108;48.730;9.304;2023-05-29T05:26:27;97702.22;;;27.06;35.55
967;BME280;56108;48.730;9.304;2023-05-29T05:28:40;97704.84;;;28.19;32.81
967;BME280;56108;48.730;9.304;2023-05-29T05:30:52;97705.66;;;28.32;32.20
967;BME280;56108;48.730;9.304;2023-05-29T05:33:00;97704.38;;;27.11;34.26
967;BME280;56108;48.730;9.304;2023-05-29T05:35:09;97709.84;;;27.57;33.47
967;BME280;56108;48.730;9.304;2023-05-29T05:37:18;97707.22;;;28.08;31.81
967;BME280;56108;48.730;9.304;2023-05-29T05:39:28;97707.03;;;27.97;31.94
967;BME280;56108;48.730;9.304;2023-05-29T05:41:39;97697.84;;;27.58;33.51
967;BME280;56108;48.730;9.304;2023-05-29T05:43:53;97697.81;;;27.85;32.60
967;BME280;56108;48.730;9.304;2023-05-29T05:46:07;97699.06;;;27.82;33.18
967;BME280;56108;48.730;9.304;2023-05-29T05:48:15;97705.06;;;28.30;32.43
967;BME280;56108;48.730;9.304;2023-05-29T05:50:23;97707.41;;;28.72;30.52
967;BME280;56108;48.730;9.304;2023-05-29T05:52:31;97709.13;;;28.59;31.97
967;BME280;56108;48.730;9.304;2023-05-29T05:54:39;97705.78;;;28.57;31.40
967;BME280;56108;48.730;9.304;2023-05-29T05:56:49;97710.44;;;28.50;30.82
967;BME280;56108;48.730;9.304;2023-05-29T05:59:00;97720.34;;;29.53;30.19
967;BME280;56108;48.730;9.304;2023-05-29T06:01:08;97715.00;;;28.70;31.78
967;BME280;56108;48.730;9.304;2023-05-29T06:03:16;97712.19;;;28.76;30.77
967;BME280;56108;48.730;9.304;2023-05-29T06:05:31;97717.81;;;28.56;31.50
967;BME280;56108;48.730;9.304;2023-05-29T06:07:39;97729.19;;;28.98;30.25
967;BME280;56108;48.730;9.304;2023-05-29T06:09:47;97721.72;;;28.74;31.59
967;BME280;56108;48.730;9.304;2023-05-29T06:11:55;97660.03;;;28.65;31.30
967;BME280;56108;48.730;9.304;2023-05-29T06:14:06;97665.22;;;29.11;30.89
967;BME280;56108;48.730;9.304;2023-05-29T06:16:14;97664.56;;;29.16;30.98
967;BME280;56108;48.730;9.304;2023-05-29T06:18:23;97661.72;;;29.29;30.17
967;BME280;56108;48.730;9.304;2023-05-29T06:20:34;97663.63;;;29.53;30.95
967;BME280;56108;48.730;9.304;2023-05-29T06:22:43;97664.94;;;28.94;30.94
967;BME280;56108;48.730;9.304;2023-05-29T06:24:55;97644.97;;;29.62;30.29
967;BME280;56108;48.730;9.304;2023-05-29T06:27:06;97642.00;;;28.05;32.61
967;BME280;56108;48.730;9.304;2023-05-29T06:29:17;97642.78;;;29.21;31.02
967;BME280;56108;48.730;9.304;2023-05-29T06:31:25;97650.56;;;30.29;28.98
967;BME280;56108;48.730;9.304;2023-05-29T06:33:33;97645.59;;;30.01;29.62
967;BME280;56108;48.730;9.304;2023-05-29T06:35:42;97648.41;;;29.94;29.82
967;BME280;56108;48.730;9.304;2023-05-29T06:37:50;97657.88;;;31.49;27.11
967;BME280;56108;48.730;9.304;2023-05-29T06:39:58;97657.69;;;31.08;27.56
967;BME280;56108;48.730;9.304;2023-05-29T06:42:07;97661.50;;;30.10;28.66
967;BME280;56108;48.730;9.304;2023-05-29T06:44:22;97656.75;;;30.24;28.88
967;BME280;56108;48.730;9.304;2023-05-29T06:46:31;97656.19;;;30.94;28.76
967;BME280;56108;48.730;9.304;2023-05-29T06:48:39;97659.50;;;31.26;28.17
967;BME280;56108;48.730;9.304;2023-05-29T06:50:50;97662.69;;;30.70;29.38
967;BME280;56108;48.730;9.304;2023-05-29T06:53:24;97661.78;;;30.57;28.95
967;BME280;56108;48.730;9.304;2023-05-29T06:55:33;97666.81;;;30.90;29.00
967;BME280;56108;48.730;9.304;2023-05-29T06:57:41;97665.41;;;31.41;27.75
967;BME280;56108;48.730;9.304;2023-05-29T06:59:53;97665.50;;;31.35;28.56
967;BME280;56108;48.730;9.304;2023-05-29T07:02:01;97670.59;;;31.85;28.01
967;BME280;56108;48.730;9.304;2023-05-29T07:04:11;97678.03;;;32.25;27.68
967;BME280;56108;48.730;9.304;2023-05-29T07:06:19;97666.81;;;32.14;26.82
967;BME280;56108;48.730;9.304;2023-05-29T07:08:27;97673.44;;;31.90;27.30
967;BME280;56108;48.730;9.304;2023-05-29T07:10:35;97675.28;;;32.25;26.47
967;BME280;56108;48.730;9.304;2023-05-29T07:12:43;97676.38;;;32.24;26.75
967;BME280;56108;48.730;9.304;2023-05-29T07:14:55;97679.69;;;33.06;25.86
967;BME280;56108;48.730;9.304;2023-05-29T07:17:03;97679.44;;;32.79;25.57
967;BME280;56108;48.730;9.304;2023-05-29T07:19:11;97683.94;;;32.68;26.62
967;BME280;56108;48.730;9.304;2023-05-29T07:21:26;97689.56;;;33.19;25.27
967;BME280;56108;48.730;9.304;2023-05-29T07:23:36;97686.69;;;32.68;26.12
967;BME280;56108;48.730;9.304;2023-05-29T07:25:44;97674.47;;;32.64;25.43
967;BME280;56108;48.730;9.304;2023-05-29T07:27:52;97683.53;;;32.77;25.26
967;BME280;56108;48.730;9.304;2023-05-29T07:30:05;97681.91;;;32.64;26.04
967;BME280;56108;48.730;9.304;2023-05-29T07:32:15;97692.31;;;33.36;24.78
967;BME280;56108;48.730;9.304;2023-05-29T07:34:24;97685.59;;;33.43;25.62
967;BME280;56108;48.730;9.304;2023-05-29T07:36:32;97687.03;;;33.01;25.49
967;BME280;56108;48.730;9.304;2023-05-29T07:38:45;97686.78;;;33.02;25.32
967;BME280;56108;48.730;9.304;2023-05-29T07:40:57;97692.41;;;33.41;24.00
967;BME280;56108;48.730;9.304;2023-05-29T07:43:10;97685.63;;;32.86;25.91
967;BME280;56108;48.730;9.304;2023-05-29T07:45:28;97681.75;;;30.16;27.98
967;BME280;56108;48.730;9.304;2023-05-29T07:47:36;97691.22;;;32.22;26.57
967;BME280;56108;48.730;9.304;2023-05-29T07:49:45;97686.22;;;33.00;25.91
967;BME280;56108;48.730;9.304;2023-05-29T07:51:53;97680.25;;;31.87;25.19
967;BME280;56108;48.730;9.304;2023-05-29T07:54:03;97682.22;;;32.79;24.98
967;BME280;56108;48.730;9.304;2023-05-29T07:56:11;97680.72;;;32.08;25.06
967;BME280;56108;48.730;9.304;2023-05-29T07:58:19;97682.03;;;31.93;26.07
967;BME280;56108;48.730;9.304;2023-05-29T08:00:31;97689.19;;;33.44;24.79
967;BME280;56108;48.730;9.304;2023-05-29T08:02:41;97677.59;;;30.92;26.30
967;BME280;56108;48.730;9.304;2023-05-29T08:05:09;97685.41;;;29.17;29.05
967;BME280;56108;48.730;9.304;2023-05-29T08:07:18;97688.34;;;28.52;29.01
967;BME280;56108;48.730;9.304;2023-05-29T08:09:26;97687.13;;;27.17;31.11
967;BME280;56108;48.730;9.304;2023-05-29T08:11:35;97682.91;;;27.27;32.63
967;BME280;56108;48.730;9.304;2023-05-29T08:13:44;97676.81;;;27.32;33.74
967;BME280;56108;48.730;9.304;2023-05-29T08:15:54;97678.34;;;25.36;36.03
967;BME280;56108;48.730;9.304;2023-05-29T08:18:05;97670.94;;;26.27;33.72
967;BME280;56108;48.730;9.304;2023-05-29T08:20:13;97673.34;;;26.02;36.23
967;BME280;56108;48.730;9.304;2023-05-29T08:22:27;97666.91;;;25.19;35.98
967;BME280;56108;48.730;9.304;2023-05-29T08:24:35;97673.66;;;24.08;37.60
967;BME280;56108;48.730;9.304;2023-05-29T08:26:43;97670.59;;;26.44;35.14
967;BME280;56108;48.730;9.304;2023-05-29T08:28:51;97682.03;;;28.51;31.67
967;BME280;56108;48.730;9.304;2023-05-29T08:31:02;97686.91;;;28.43;31.84
967;BME280;56108;48.730;9.304;2023-05-29T08:33:10;97671.94;;;26.74;33.29
967;BME280;56108;48.730;9.304;2023-05-29T08:35:18;97668.44;;;26.39;35.13
967;BME280;56108;48.730;9.304;2023-05-29T08:37:27;97676.03;;;25.33;37.51
967;BME280;56108;48.730;9.304;2023-05-29T08:39:35;97677.03;;;24.83;37.08
967;BME280;56108;48.730;9.304;2023-05-29T08:41:51;97657.16;;;24.10;38.61
967;BME280;56108;48.730;9.304;2023-05-29T08:44:05;97676.44;;;24.87;40.44
967;BME280;56108;48.730;9.304;2023-05-29T08:46:18;97668.13;;;23.57;39.56
967;BME280;56108;48.730;9.304;2023-05-29T08:48:29;97664.75;;;24.00;40.76
967;BME280;56108;48.730;9.304;2023-05-29T08:50:41;97661.06;;;23.71;40.22
967;BME280;56108;48.730;9.304;2023-05-29T08:52:51;97666.19;;;22.99;41.15
967;BME280;56108;48.730;9.304;2023-05-29T08:54:59;97669.38;;;24.50;39.56
967;BME280;56108;48.730;9.304;2023-05-29T08:57:09;97668.94;;;26.01;36.24
967;BME280;56108;48.730;9.304;2023-05-29T08:59:18;97670.59;;;28.09;34.35
967;BME280;56108;48.730;9.304;2023-05-29T09:01:30;97679.31;;;27.00;34.54
967;BME280;56108;48.730;9.304;2023-05-29T09:03:39;97667.69;;;26.52;36.00
967;BME280;56108;48.730;9.304;2023-05-29T09:05:48;97680.38;;;27.06;36.02
967;BME280;56108;48.730;9.304;2023-05-29T09:07:56;97677.91;;;29.05;32.11
967;BME280;56108;48.730;9.304;2023-05-29T09:10:05;97678.31;;;30.21;31.66
967;BME280;56108;48.730;9.304;2023-05-29T09:12:14;97673.84;;;29.15;33.18
967;BME280;56108;48.730;9.304;2023-05-29T09:14:34;97674.09;;;28.30;32.83
967;BME280;56108;48.730;9.304;2023-05-29T09:16:45;97675.13;;;28.42;32.53
967;BME280;56108;48.730;9.304;2023-05-29T09:19:04;97674.22;;;29.68;31.48
967;BME280;56108;48.730;9.304;2023-05-29T09:21:25;97674.22;;;29.18;32.30
967;BME280;56108;48.730;9.304;2023-05-29T09:23:34;97674.47;;;29.85;31.85
967;BME280;56108;48.730;9.304;2023-05-29T09:25:43;97670.94;;;28.26;32.48
967;BME280;56108;48.730;9.304;2023-05-29T09:27:53;97672.50;;;29.24;31.97
967;BME280;56108;48.730;9.304;2023-05-29T09:30:02;97666.81;;;28.55;32.48
967;BME280;56108;48.730;9.304;2023-05-29T09:32:15;97662.09;;;28.31;33.15
967;BME280;56108;48.730;9.304;2023-05-29T09:34:23;97664.19;;;27.44;33.29
967;BME280;56108;48.730;9.304;2023-05-29T09:36:32;97665.16;;;28.54;32.42
967;BME280;56108;48.730;9.304;2023-05-29T09:38:45;97666.91;;;28.42;33.25
967;BME280;56108;48.730;9.304;2023-05-29T09:41:03;97668.53;;;28.56;33.17
967;BME280;56108;48.730;9.304;2023-05-29T09:43:12;97674.44;;;28.53;31.56
967;BME280;56108;48.730;9.304;2023-05-29T09:45:21;97659.75;;;26.90;34.06
967;BME280;56108;48.730;9.304;2023-05-29T09:47:34;97666.94;;;27.24;34.27
967;BME280;56108;48.730;9.304;2023-05-29T09:49:43;97679.84;;;28.15;32.32
967;BME280;56108;48.730;9.304;2023-05-29T09:51:53;97672.81;;;27.48;30.59
967;BME280;56108;48.730;9.304;2023-05-29T09:54:13;97672.31;;;28.04;32.27
967;BME280;56108;48.730;9.304;2023-05-29T09:56:23;97665.88;;;29.81;31.17
967;BME280;56108;48.730;9.304;2023-05-29T09:58:32;97660.47;;;29.93;31.32
967;BME280;56108;48.730;9.304;2023-05-29T10:00:44;97670.03;;;28.84;32.29
967;BME280;56108;48.730;9.304;2023-05-29T10:02:55;97675.44;;;29.29;32.07
967;BME280;56108;48.730;9.304;2023-05-29T10:05:03;97662.38;;;28.99;31.86
967;BME280;56108;48.730;9.304;2023-05-29T10:07:23;97660.13;;;28.00;31.91
967;BME280;56108;48.730;9.304;2023-05-29T10:09:33;97665.69;;;28.25;32.02
967;BME280;56108;48.730;9.304;2023-05-29T10:11:43;97669.88;;;27.23;32.56
967;BME280;56108;48.730;9.304;2023-05-29T10:13:56;97668.75;;;26.58;29.27
967;BME280;56108;48.730;9.304;2023-05-29T10:16:08;97664.47;;;25.59;30.92
967;BME280;56108;48.730;9.304;2023-05-29T10:18:23;97664.88;;;25.84;31.90
967;BME280;56108;48.730;9.304;2023-05-29T10:20:35;97659.22;;;25.92;31.91
967;BME280;56108;48.730;9.304;2023-05-29T10:22:46;97659.19;;;26.27;31.15
967;BME280;56108;48.730;9.304;2023-05-29T10:24:57;97654.63;;;25.99;31.08
967;BME280;56108;48.730;9.304;2023-05-29T10:27:06;97654.31;;;26.16;31.73
967;BME280;56108;48.730;9.304;2023-05-29T10:29:18;97658.50;;;26.12;32.99
967;BME280;56108;48.730;9.304;2023-05-29T10:31:32;97651.81;;;27.22;31.71
967;BME280;56108;48.730;9.304;2023-05-29T10:33:56;97651.38;;;27.51;29.52
967;BME280;56108;48.730;9.304;2023-05-29T10:36:13;97650.31;;;26.79;32.16
967;BME280;56108;48.730;9.304;2023-05-29T10:38:22;97654.81;;;25.85;31.50
967;BME280;56108;48.730;9.304;2023-05-29T10:40:31;97648.53;;;25.63;32.74
967;BME280;56108;48.730;9.304;2023-05-29T10:42:46;97652.34;;;25.96;33.71
967;BME280;56108;48.730;9.304;2023-05-29T10:44:57;97647.50;;;25.98;31.73
967;BME280;56108;48.730;9.304;2023-05-29T10:47:05;97635.63;;;26.19;34.00
967;BME280;56108;48.730;9.304;2023-05-29T10:49:19;97637.38;;;25.86;32.56
967;BME280;56108;48.730;9.304;2023-05-29T10:51:28;97644.06;;;25.83;34.40
967;BME280;56108;48.730;9.304;2023-05-29T10:53:40;97633.44;;;25.60;33.83
967;BME280;56108;48.730;9.304;2023-05-29T10:55:50;97645.28;;;25.74;33.78
967;BME280;56108;48.730;9.304;2023-05-29T10:58:04;97642.69;;;26.55;32.22
967;BME280;56108;48.730;9.304;2023-05-29T11:00:16;97651.59;;;26.16;33.22
967;BME280;56108;48.730;9.304;2023-05-29T11:02:27;97646.06;;;25.33;33.91
967;BME280;56108;48.730;9.304;2023-05-29T11:04:38;97636.69;;;25.14;34.19
967;BME280;56108;48.730;9.304;2023-05-29T11:06:49;97638.16;;;24.31;34.64
967;BME280;56108;48.730;9.304;2023-05-29T11:08:57;97640.53;;;23.68;35.58
967;BME280;56108;48.730;9.304;2023-05-29T11:11:11;97642.84;;;23.57;35.08
967;BME280;56108;48.730;9.304;2023-05-29T11:13:26;97635.78;;;24.43;35.69
967;BME280;56108;48.730;9.304;2023-05-29T11:15:36;97639.72;;;25.05;35.17
967;BME280;56108;48.730;9.304;2023-05-29T11:17:44;97639.75;;;24.40;33.70
967;BME280;56108;48.730;9.304;2023-05-29T11:19:56;97631.66;;;24.47;34.47
967;BME280;56108;48.730;9.304;2023-05-29T11:22:09;97627.66;;;24.86;36.56
967;BME280;56108;48.730;9.304;2023-05-29T11:24:23;97630.91;;;25.24;34.82
967;BME280;56108;48.730;9.304;2023-05-29T11:26:34;97624.66;;;25.30;33.13
967;BME280;56108;48.730;9.304;2023-05-29T11:28:44;97636.00;;;24.84;34.48
967;BME280;56108;48.730;9.304;2023-05-29T11:30:52;97637.78;;;24.98;34.33
967;BME280;56108;48.730;9.304;2023-05-29T11:33:06;97640.59;;;24.41;33.56
967;BME280;56108;48.730;9.304;2023-05-29T11:35:21;97640.34;;;24.79;34.74
967;BME280;56108;48.730;9.304;2023-05-29T11:37:29;97632.81;;;25.02;35.46
967;BME280;56108;48.730;9.304;2023-05-29T11:39:39;97627.16;;;25.04;33.34
967;BME280;56108;48.730;9.304;2023-05-29T11:41:51;97641.59;;;24.76;34.50
967;BME280;56108;48.730;9.304;2023-05-29T11:44:00;97640.34;;;24.21;32.66
967;BME280;56108;48.730;9.304;2023-05-29T11:46:16;97636.66;;;23.92;32.40
967;BME280;56108;48.730;9.304;2023-05-29T11:48:26;97635.34;;;24.39;31.19